Kuwait City, Kuwait
Current Conditions -  °F | °C
As of 4:00 AM on Sunday 23 Nov 2014 (Local Time) from OKBK Reporting Station
Scattered Clouds Scattered Clouds  
Wind Chill: 70°   Ceiling: Unl
Heat Index: 70°   Visibility: 6mi
Dew Point: 55°   Wind: 12mph
Humidity: 60%   Direction: 350°N
Pressure: 29.91"   Gusts: NA
Location:  29.22°N, 47.98°E
Report Text: OKBK 230100Z 35010KT 9999 FEW040 SCT080 21/13 Q1013 NOSIG
Loading
Personal Weather Stations






























Interactive Weather Map New forecast layout! Learn more

10-Day Weather Forecast

Advertisements
Track Severe Weather on mobile